sensor_id;sensor_type;location;lat;lon;timestamp;P1;durP1;ratioP1;P2;durP2;ratioP2
39994;SDS011;25686;51.908;10.418;2022-07-30T00:00:24;7.22;;;3.00;;
39994;SDS011;25686;51.908;10.418;2022-07-30T00:02:25;6.45;;;2.50;;
39994;SDS011;25686;51.908;10.418;2022-07-30T00:04:26;6.68;;;2.92;;
39994;SDS011;25686;51.908;10.418;2022-07-30T00:06:27;6.13;;;2.70;;
39994;SDS011;25686;51.908;10.418;2022-07-30T00:08:28;10.43;;;3.20;;
39994;SDS011;25686;51.908;10.418;2022-07-30T00:10:29;5.45;;;3.10;;
39994;SDS011;25686;51.908;10.418;2022-07-30T00:12:30;5.70;;;3.28;;
39994;SDS011;25686;51.908;10.418;2022-07-30T00:14:31;6.63;;;2.72;;
39994;SDS011;25686;51.908;10.418;2022-07-30T00:16:33;7.70;;;2.92;;
39994;SDS011;25686;51.908;10.418;2022-07-30T00:18:34;6.10;;;2.63;;
39994;SDS011;25686;51.908;10.418;2022-07-30T00:20:35;6.63;;;3.15;;
39994;SDS011;25686;51.908;10.418;2022-07-30T00:22:39;7.68;;;2.83;;
39994;SDS011;25686;51.908;10.418;2022-07-30T00:24:40;5.05;;;2.80;;
39994;SDS011;25686;51.908;10.418;2022-07-30T00:26:41;9.32;;;2.67;;
39994;SDS011;25686;51.908;10.418;2022-07-30T00:28:42;5.70;;;2.65;;
39994;SDS011;25686;51.908;10.418;2022-07-30T00:30:42;5.72;;;2.90;;
39994;SDS011;25686;51.908;10.418;2022-07-30T00:32:43;5.80;;;2.90;;
39994;SDS011;25686;51.908;10.418;2022-07-30T00:34:44;6.97;;;2.85;;
39994;SDS011;25686;51.908;10.418;2022-07-30T00:36:45;9.40;;;2.97;;
39994;SDS011;25686;51.908;10.418;2022-07-30T00:38:46;4.63;;;2.90;;
39994;SDS011;25686;51.908;10.418;2022-07-30T00:40:47;4.28;;;3.00;;
39994;SDS011;25686;51.908;10.418;2022-07-30T00:42:48;5.43;;;2.70;;
39994;SDS011;25686;51.908;10.418;2022-07-30T00:44:52;4.95;;;2.75;;
39994;SDS011;25686;51.908;10.418;2022-07-30T00:46:53;5.78;;;2.90;;
39994;SDS011;25686;51.908;10.418;2022-07-30T00:48:54;6.25;;;3.20;;
39994;SDS011;25686;51.908;10.418;2022-07-30T00:50:55;4.28;;;2.55;;
39994;SDS011;25686;51.908;10.418;2022-07-30T00:52:56;6.05;;;2.90;;
39994;SDS011;25686;51.908;10.418;2022-07-30T00:54:58;5.88;;;2.83;;
39994;SDS011;25686;51.908;10.418;2022-07-30T00:56:59;6.35;;;3.20;;
39994;SDS011;25686;51.908;10.418;2022-07-30T00:59:00;10.65;;;3.00;;
39994;SDS011;25686;51.908;10.418;2022-07-30T01:01:01;7.95;;;2.80;;
39994;SDS011;25686;51.908;10.418;2022-07-30T01:03:02;8.20;;;3.08;;
39994;SDS011;25686;51.908;10.418;2022-07-30T01:05:04;6.72;;;2.80;;
39994;SDS011;25686;51.908;10.418;2022-07-30T01:07:05;6.28;;;2.90;;
39994;SDS011;25686;51.908;10.418;2022-07-30T01:09:06;9.32;;;3.10;;
39994;SDS011;25686;51.908;10.418;2022-07-30T01:11:08;5.53;;;2.70;;
39994;SDS011;25686;51.908;10.418;2022-07-30T01:13:09;4.28;;;3.20;;
39994;SDS011;25686;51.908;10.418;2022-07-30T01:15:10;10.85;;;3.03;;
39994;SDS011;25686;51.908;10.418;2022-07-30T01:17:11;7.60;;;3.22;;
39994;SDS011;25686;51.908;10.418;2022-07-30T01:19:14;6.43;;;2.97;;
39994;SDS011;25686;51.908;10.418;2022-07-30T01:21:38;6.13;;;2.80;;
39994;SDS011;25686;51.908;10.418;2022-07-30T01:23:41;6.50;;;3.15;;
39994;SDS011;25686;51.908;10.418;2022-07-30T01:27:55;5.25;;;3.20;;
39994;SDS011;25686;51.908;10.418;2022-07-30T01:29:57;5.70;;;3.13;;
39994;SDS011;25686;51.908;10.418;2022-07-30T01:31:59;4.85;;;2.97;;
39994;SDS011;25686;51.908;10.418;2022-07-30T01:34:01;7.40;;;3.10;;
39994;SDS011;25686;51.908;10.418;2022-07-30T01:36:03;8.63;;;3.42;;
39994;SDS011;25686;51.908;10.418;2022-07-30T01:38:06;5.88;;;3.58;;
39994;SDS011;25686;51.908;10.418;2022-07-30T01:40:10;7.07;;;3.33;;
39994;SDS011;25686;51.908;10.418;2022-07-30T01:42:11;7.15;;;3.13;;
39994;SDS011;25686;51.908;10.418;2022-07-30T01:44:13;5.55;;;3.30;;
39994;SDS011;25686;51.908;10.418;2022-07-30T01:46:15;7.20;;;3.92;;
39994;SDS011;25686;51.908;10.418;2022-07-30T01:48:18;7.93;;;3.55;;
39994;SDS011;25686;51.908;10.418;2022-07-30T01:50:20;7.22;;;3.50;;
39994;SDS011;25686;51.908;10.418;2022-07-30T01:52:22;7.78;;;3.60;;
39994;SDS011;25686;51.908;10.418;2022-07-30T01:54:23;12.05;;;4.15;;
39994;SDS011;25686;51.908;10.418;2022-07-30T01:56:25;7.22;;;3.83;;
39994;SDS011;25686;51.908;10.418;2022-07-30T01:58:30;7.05;;;3.92;;
39994;SDS011;25686;51.908;10.418;2022-07-30T02:00:33;6.32;;;3.60;;
39994;SDS011;25686;51.908;10.418;2022-07-30T02:02:35;8.48;;;3.88;;
39994;SDS011;25686;51.908;10.418;2022-07-30T02:04:37;4.97;;;3.70;;
39994;SDS011;25686;51.908;10.418;2022-07-30T02:06:40;7.70;;;4.13;;
39994;SDS011;25686;51.908;10.418;2022-07-30T02:08:47;7.05;;;3.70;;
39994;SDS011;25686;51.908;10.418;2022-07-30T02:10:51;11.45;;;4.40;;
39994;SDS011;25686;51.908;10.418;2022-07-30T02:12:54;10.20;;;4.35;;
39994;SDS011;25686;51.908;10.418;2022-07-30T02:17:00;10.35;;;4.82;;
39994;SDS011;25686;51.908;10.418;2022-07-30T02:19:04;7.50;;;4.55;;
39994;SDS011;25686;51.908;10.418;2022-07-30T02:21:09;9.40;;;4.63;;
39994;SDS011;25686;51.908;10.418;2022-07-30T02:23:11;9.38;;;4.38;;
39994;SDS011;25686;51.908;10.418;2022-07-30T02:25:16;6.90;;;4.45;;
39994;SDS011;25686;51.908;10.418;2022-07-30T02:27:20;7.25;;;4.80;;
39994;SDS011;25686;51.908;10.418;2022-07-30T02:29:22;14.00;;;5.30;;
39994;SDS011;25686;51.908;10.418;2022-07-30T02:31:24;8.85;;;5.07;;
39994;SDS011;25686;51.908;10.418;2022-07-30T02:33:27;10.73;;;5.20;;
39994;SDS011;25686;51.908;10.418;2022-07-30T02:35:29;9.50;;;5.18;;
39994;SDS011;25686;51.908;10.418;2022-07-30T02:37:31;8.45;;;5.53;;
39994;SDS011;25686;51.908;10.418;2022-07-30T02:39:33;10.43;;;6.45;;
39994;SDS011;25686;51.908;10.418;2022-07-30T02:41:35;9.13;;;6.07;;
39994;SDS011;25686;51.908;10.418;2022-07-30T02:43:39;11.05;;;5.80;;
39994;SDS011;25686;51.908;10.418;2022-07-30T02:45:40;11.27;;;5.75;;
39994;SDS011;25686;51.908;10.418;2022-07-30T02:47:41;8.25;;;5.82;;
39994;SDS011;25686;51.908;10.418;2022-07-30T02:49:43;9.63;;;6.05;;
39994;SDS011;25686;51.908;10.418;2022-07-30T02:51:45;13.38;;;5.93;;
39994;SDS011;25686;51.908;10.418;2022-07-30T02:53:47;12.35;;;6.28;;
39994;SDS011;25686;51.908;10.418;2022-07-30T02:55:49;13.23;;;6.38;;
39994;SDS011;25686;51.908;10.418;2022-07-30T02:57:51;13.95;;;6.70;;
39994;SDS011;25686;51.908;10.418;2022-07-30T02:59:53;18.63;;;6.60;;
39994;SDS011;25686;51.908;10.418;2022-07-30T03:01:55;8.80;;;6.65;;
39994;SDS011;25686;51.908;10.418;2022-07-30T03:03:57;8.98;;;6.30;;
39994;SDS011;25686;51.908;10.418;2022-07-30T03:05:58;9.45;;;5.72;;
39994;SDS011;25686;51.908;10.418;2022-07-30T03:08:01;10.77;;;5.65;;
39994;SDS011;25686;51.908;10.418;2022-07-30T03:10:02;11.15;;;6.03;;
39994;SDS011;25686;51.908;10.418;2022-07-30T03:12:03;9.25;;;5.60;;
39994;SDS011;25686;51.908;10.418;2022-07-30T03:14:05;7.18;;;5.22;;
39994;SDS011;25686;51.908;10.418;2022-07-30T03:16:08;10.75;;;6.00;;
39994;SDS011;25686;51.908;10.418;2022-07-30T03:18:11;9.60;;;6.20;;
39994;SDS011;25686;51.908;10.418;2022-07-30T03:20:14;12.90;;;6.20;;
39994;SDS011;25686;51.908;10.418;2022-07-30T03:22:17;9.20;;;6.45;;
39994;SDS011;25686;51.908;10.418;2022-07-30T03:24:19;11.35;;;6.88;;
39994;SDS011;25686;51.908;10.418;2022-07-30T03:26:22;10.85;;;6.88;;
39994;SDS011;25686;51.908;10.418;2022-07-30T03:28:24;9.93;;;6.72;;
39994;SDS011;25686;51.908;10.418;2022-07-30T03:30:25;8.82;;;6.35;;
39994;SDS011;25686;51.908;10.418;2022-07-30T03:32:27;8.45;;;7.00;;
39994;SDS011;25686;51.908;10.418;2022-07-30T03:34:29;10.40;;;6.30;;
39994;SDS011;25686;51.908;10.418;2022-07-30T03:36:31;9.30;;;6.40;;
39994;SDS011;25686;51.908;10.418;2022-07-30T03:38:35;10.20;;;7.15;;
39994;SDS011;25686;51.908;10.418;2022-07-30T03:40:37;11.05;;;7.00;;
39994;SDS011;25686;51.908;10.418;2022-07-30T03:42:39;8.43;;;6.85;;
39994;SDS011;25686;51.908;10.418;2022-07-30T03:44:40;10.88;;;7.05;;
39994;SDS011;25686;51.908;10.418;2022-07-30T03:46:44;12.05;;;7.78;;
39994;SDS011;25686;51.908;10.418;2022-07-30T03:48:46;10.50;;;6.78;;
39994;SDS011;25686;51.908;10.418;2022-07-30T03:50:47;8.95;;;6.57;;
39994;SDS011;25686;51.908;10.418;2022-07-30T03:52:48;9.95;;;7.57;;
39994;SDS011;25686;51.908;10.418;2022-07-30T03:54:49;12.43;;;7.55;;
39994;SDS011;25686;51.908;10.418;2022-07-30T03:56:51;10.35;;;7.00;;
39994;SDS011;25686;51.908;10.418;2022-07-30T03:58:52;12.63;;;6.88;;
39994;SDS011;25686;51.908;10.418;2022-07-30T04:00:53;14.32;;;7.40;;
39994;SDS011;25686;51.908;10.418;2022-07-30T04:02:54;10.82;;;7.60;;
39994;SDS011;25686;51.908;10.418;2022-07-30T04:04:55;13.02;;;7.47;;
39994;SDS011;25686;51.908;10.418;2022-07-30T04:06:57;11.60;;;7.30;;
39994;SDS011;25686;51.908;10.418;2022-07-30T04:08:58;10.45;;;7.43;;
39994;SDS011;25686;51.908;10.418;2022-07-30T04:10:59;9.25;;;7.00;;
39994;SDS011;25686;51.908;10.418;2022-07-30T04:13:00;10.70;;;7.18;;
39994;SDS011;25686;51.908;10.418;2022-07-30T04:15:01;10.13;;;7.43;;
39994;SDS011;25686;51.908;10.418;2022-07-30T04:17:02;9.70;;;7.40;;
39994;SDS011;25686;51.908;10.418;2022-07-30T04:19:04;13.63;;;8.10;;
39994;SDS011;25686;51.908;10.418;2022-07-30T04:21:08;12.77;;;8.48;;
39994;SDS011;25686;51.908;10.418;2022-07-30T04:23:10;11.13;;;8.25;;
39994;SDS011;25686;51.908;10.418;2022-07-30T04:25:11;13.50;;;7.93;;
39994;SDS011;25686;51.908;10.418;2022-07-30T04:27:12;10.80;;;7.18;;
39994;SDS011;25686;51.908;10.418;2022-07-30T04:29:14;9.45;;;6.93;;
39994;SDS011;25686;51.908;10.418;2022-07-30T04:31:15;12.43;;;8.20;;
39994;SDS011;25686;51.908;10.418;2022-07-30T04:33:16;12.98;;;7.55;;
39994;SDS011;25686;51.908;10.418;2022-07-30T04:35:25;12.30;;;7.90;;
39994;SDS011;25686;51.908;10.418;2022-07-30T04:37:27;11.55;;;7.88;;
39994;SDS011;25686;51.908;10.418;2022-07-30T04:39:27;11.90;;;8.13;;
39994;SDS011;25686;51.908;10.418;2022-07-30T04:41:29;11.30;;;8.13;;
39994;SDS011;25686;51.908;10.418;2022-07-30T04:43:29;11.00;;;8.48;;
39994;SDS011;25686;51.908;10.418;2022-07-30T04:45:30;13.60;;;7.35;;
39994;SDS011;25686;51.908;10.418;2022-07-30T04:47:32;11.18;;;7.70;;
39994;SDS011;25686;51.908;10.418;2022-07-30T04:49:33;8.68;;;7.78;;
39994;SDS011;25686;51.908;10.418;2022-07-30T04:51:34;13.07;;;8.20;;
39994;SDS011;25686;51.908;10.418;2022-07-30T04:53:37;10.35;;;8.50;;
39994;SDS011;25686;51.908;10.418;2022-07-30T04:55:39;10.73;;;8.70;;
39994;SDS011;25686;51.908;10.418;2022-07-30T04:57:41;12.63;;;8.65;;
39994;SDS011;25686;51.908;10.418;2022-07-30T04:59:42;11.73;;;8.60;;
39994;SDS011;25686;51.908;10.418;2022-07-30T05:01:44;12.43;;;8.77;;
39994;SDS011;25686;51.908;10.418;2022-07-30T05:03:46;10.38;;;7.65;;
39994;SDS011;25686;51.908;10.418;2022-07-30T05:05:47;11.63;;;8.32;;
39994;SDS011;25686;51.908;10.418;2022-07-30T05:07:48;12.55;;;7.90;;
39994;SDS011;25686;51.908;10.418;2022-07-30T05:09:49;9.93;;;7.80;;
39994;SDS011;25686;51.908;10.418;2022-07-30T05:11:51;9.30;;;8.00;;
39994;SDS011;25686;51.908;10.418;2022-07-30T05:13:52;10.80;;;7.10;;
39994;SDS011;25686;51.908;10.418;2022-07-30T05:15:53;13.05;;;7.95;;
39994;SDS011;25686;51.908;10.418;2022-07-30T05:17:54;8.60;;;6.95;;
39994;SDS011;25686;51.908;10.418;2022-07-30T05:19:55;9.35;;;6.82;;
39994;SDS011;25686;51.908;10.418;2022-07-30T05:21:56;12.52;;;7.22;;
39994;SDS011;25686;51.908;10.418;2022-07-30T05:23:58;8.05;;;6.03;;
39994;SDS011;25686;51.908;10.418;2022-07-30T05:25:59;9.32;;;6.03;;
39994;SDS011;25686;51.908;10.418;2022-07-30T05:28:00;8.07;;;5.80;;
39994;SDS011;25686;51.908;10.418;2022-07-30T05:30:01;10.82;;;5.95;;
39994;SDS011;25686;51.908;10.418;2022-07-30T05:32:02;7.35;;;6.03;;
39994;SDS011;25686;51.908;10.418;2022-07-30T05:34:03;9.07;;;6.38;;
39994;SDS011;25686;51.908;10.418;2022-07-30T05:36:04;8.35;;;6.50;;
39994;SDS011;25686;51.908;10.418;2022-07-30T05:38:05;9.10;;;6.53;;
39994;SDS011;25686;51.908;10.418;2022-07-30T05:40:06;11.50;;;6.68;;
39994;SDS011;25686;51.908;10.418;2022-07-30T05:42:07;9.45;;;6.55;;
39994;SDS011;25686;51.908;10.418;2022-07-30T05:44:08;9.60;;;6.22;;
39994;SDS011;25686;51.908;10.418;2022-07-30T05:46:09;8.60;;;6.32;;
39994;SDS011;25686;51.908;10.418;2022-07-30T05:48:11;9.13;;;6.32;;
39994;SDS011;25686;51.908;10.418;2022-07-30T05:50:12;7.97;;;5.90;;
39994;SDS011;25686;51.908;10.418;2022-07-30T05:52:13;11.48;;;6.50;;
39994;SDS011;25686;51.908;10.418;2022-07-30T05:54:14;9.63;;;7.20;;
39994;SDS011;25686;51.908;10.418;2022-07-30T05:56:15;9.85;;;7.28;;
39994;SDS011;25686;51.908;10.418;2022-07-30T05:58:16;8.40;;;7.38;;
39994;SDS011;25686;51.908;10.418;2022-07-30T06:00:18;9.23;;;7.68;;
39994;SDS011;25686;51.908;10.418;2022-07-30T06:02:19;10.90;;;7.82;;
39994;SDS011;25686;51.908;10.418;2022-07-30T06:04:20;15.73;;;7.68;;
39994;SDS011;25686;51.908;10.418;2022-07-30T06:06:21;11.32;;;8.02;;
39994;SDS011;25686;51.908;10.418;2022-07-30T06:08:22;11.13;;;8.02;;
39994;SDS011;25686;51.908;10.418;2022-07-30T06:10:23;9.45;;;7.88;;
39994;SDS011;25686;51.908;10.418;2022-07-30T06:12:27;10.57;;;8.32;;
39994;SDS011;25686;51.908;10.418;2022-07-30T06:14:28;9.88;;;7.78;;
39994;SDS011;25686;51.908;10.418;2022-07-30T06:16:31;9.93;;;7.90;;
39994;SDS011;25686;51.908;10.418;2022-07-30T06:18:32;10.00;;;8.07;;
39994;SDS011;25686;51.908;10.418;2022-07-30T06:20:32;13.82;;;9.68;;
39994;SDS011;25686;51.908;10.418;2022-07-30T06:22:33;10.32;;;9.10;;
39994;SDS011;25686;51.908;10.418;2022-07-30T06:24:35;12.25;;;8.20;;
39994;SDS011;25686;51.908;10.418;2022-07-30T06:26:36;10.73;;;7.78;;
39994;SDS011;25686;51.908;10.418;2022-07-30T06:28:37;8.52;;;7.55;;
39994;SDS011;25686;51.908;10.418;2022-07-30T06:30:38;10.00;;;7.25;;
39994;SDS011;25686;51.908;10.418;2022-07-30T06:32:39;8.25;;;7.18;;
39994;SDS011;25686;51.908;10.418;2022-07-30T06:34:42;9.32;;;7.32;;
39994;SDS011;25686;51.908;10.418;2022-07-30T06:36:43;9.27;;;6.63;;
39994;SDS011;25686;51.908;10.418;2022-07-30T06:38:44;11.32;;;6.35;;
39994;SDS011;25686;51.908;10.418;2022-07-30T06:40:45;7.53;;;6.53;;
39994;SDS011;25686;51.908;10.418;2022-07-30T06:42:46;11.50;;;7.35;;
39994;SDS011;25686;51.908;10.418;2022-07-30T06:44:47;8.75;;;6.63;;
39994;SDS011;25686;51.908;10.418;2022-07-30T06:46:48;10.65;;;6.65;;
39994;SDS011;25686;51.908;10.418;2022-07-30T06:48:49;9.10;;;6.05;;
39994;SDS011;25686;51.908;10.418;2022-07-30T06:50:50;8.88;;;6.10;;
39994;SDS011;25686;51.908;10.418;2022-07-30T06:52:51;8.10;;;7.00;;
39994;SDS011;25686;51.908;10.418;2022-07-30T06:54:52;9.48;;;6.90;;
39994;SDS011;25686;51.908;10.418;2022-07-30T06:56:53;8.02;;;6.63;;
39994;SDS011;25686;51.908;10.418;2022-07-30T06:58:54;12.43;;;7.25;;
39994;SDS011;25686;51.908;10.418;2022-07-30T07:00:55;9.07;;;6.82;;
39994;SDS011;25686;51.908;10.418;2022-07-30T07:02:56;8.23;;;6.82;;
39994;SDS011;25686;51.908;10.418;2022-07-30T07:04:57;9.98;;;7.32;;
39994;SDS011;25686;51.908;10.418;2022-07-30T07:06:59;8.98;;;7.18;;
39994;SDS011;25686;51.908;10.418;2022-07-30T07:09:00;7.95;;;6.55;;
39994;SDS011;25686;51.908;10.418;2022-07-30T07:11:01;8.13;;;6.30;;
39994;SDS011;25686;51.908;10.418;2022-07-30T07:13:02;8.25;;;6.82;;
39994;SDS011;25686;51.908;10.418;2022-07-30T07:15:03;8.82;;;6.72;;
39994;SDS011;25686;51.908;10.418;2022-07-30T07:17:05;8.75;;;6.40;;
39994;SDS011;25686;51.908;10.418;2022-07-30T07:19:06;8.43;;;6.55;;
39994;SDS011;25686;51.908;10.418;2022-07-30T07:21:07;9.38;;;6.53;;
39994;SDS011;25686;51.908;10.418;2022-07-30T07:23:08;8.25;;;5.75;;
39994;SDS011;25686;51.908;10.418;2022-07-30T07:25:09;6.28;;;5.30;;
39994;SDS011;25686;51.908;10.418;2022-07-30T07:27:10;6.85;;;4.70;;
39994;SDS011;25686;51.908;10.418;2022-07-30T07:29:11;6.28;;;4.60;;
39994;SDS011;25686;51.908;10.418;2022-07-30T07:31:12;5.00;;;4.45;;
39994;SDS011;25686;51.908;10.418;2022-07-30T07:33:13;5.20;;;4.10;;
39994;SDS011;25686;51.908;10.418;2022-07-30T07:35:14;6.47;;;4.20;;
39994;SDS011;25686;51.908;10.418;2022-07-30T07:37:15;4.63;;;3.88;;
39994;SDS011;25686;51.908;10.418;2022-07-30T07:39:16;4.43;;;3.72;;
39994;SDS011;25686;51.908;10.418;2022-07-30T07:41:17;5.00;;;3.35;;
39994;SDS011;25686;51.908;10.418;2022-07-30T07:43:18;5.60;;;3.63;;
39994;SDS011;25686;51.908;10.418;2022-07-30T07:45:19;5.63;;;3.63;;
39994;SDS011;25686;51.908;10.418;2022-07-30T07:47:20;4.28;;;3.40;;
39994;SDS011;25686;51.908;10.418;2022-07-30T07:49:21;6.13;;;4.10;;
39994;SDS011;25686;51.908;10.418;2022-07-30T07:51:22;4.75;;;3.17;;
39994;SDS011;25686;51.908;10.418;2022-07-30T07:53:23;3.63;;;3.00;;
39994;SDS011;25686;51.908;10.418;2022-07-30T07:55:25;3.47;;;2.92;;
39994;SDS011;25686;51.908;10.418;2022-07-30T07:57:26;4.28;;;3.00;;
39994;SDS011;25686;51.908;10.418;2022-07-30T07:59:27;2.95;;;2.65;;
39994;SDS011;25686;51.908;10.418;2022-07-30T08:01:28;3.55;;;2.67;;
39994;SDS011;25686;51.908;10.418;2022-07-30T08:03:29;3.35;;;2.70;;
39994;SDS011;25686;51.908;10.418;2022-07-30T08:05:30;3.05;;;2.60;;
39994;SDS011;25686;51.908;10.418;2022-07-30T08:07:31;5.10;;;2.47;;
39994;SDS011;25686;51.908;10.418;2022-07-30T08:09:32;3.03;;;2.63;;
39994;SDS011;25686;51.908;10.418;2022-07-30T08:11:33;2.33;;;2.10;;
39994;SDS011;25686;51.908;10.418;2022-07-30T08:13:34;3.13;;;2.15;;
39994;SDS011;25686;51.908;10.418;2022-07-30T08:15:35;2.75;;;2.00;;
39994;SDS011;25686;51.908;10.418;2022-07-30T08:17:39;2.53;;;2.08;;
39994;SDS011;25686;51.908;10.418;2022-07-30T08:19:41;2.05;;;1.85;;
39994;SDS011;25686;51.908;10.418;2022-07-30T08:21:42;2.03;;;1.83;;
39994;SDS011;25686;51.908;10.418;2022-07-30T08:23:43;1.83;;;1.73;;
39994;SDS011;25686;51.908;10.418;2022-07-30T08:25:44;3.22;;;1.95;;
39994;SDS011;25686;51.908;10.418;2022-07-30T08:27:45;2.22;;;1.80;;
39994;SDS011;25686;51.908;10.418;2022-07-30T08:29:46;2.75;;;1.63;;
39994;SDS011;25686;51.908;10.418;2022-07-30T08:31:47;5.95;;;1.90;;
39994;SDS011;25686;51.908;10.418;2022-07-30T08:33:48;2.53;;;1.60;;
39994;SDS011;25686;51.908;10.418;2022-07-30T08:35:49;2.28;;;1.50;;
39994;SDS011;25686;51.908;10.418;2022-07-30T08:37:50;1.85;;;1.35;;
39994;SDS011;25686;51.908;10.418;2022-07-30T08:39:51;1.75;;;1.30;;
39994;SDS011;25686;51.908;10.418;2022-07-30T08:41:52;2.30;;;1.25;;
39994;SDS011;25686;51.908;10.418;2022-07-30T08:43:54;1.70;;;1.60;;
39994;SDS011;25686;51.908;10.418;2022-07-30T08:45:55;2.42;;;1.30;;
39994;SDS011;25686;51.908;10.418;2022-07-30T08:47:56;2.13;;;1.40;;
39994;SDS011;25686;51.908;10.418;2022-07-30T08:50:00;1.45;;;1.35;;
39994;SDS011;25686;51.908;10.418;2022-07-30T08:52:04;1.60;;;1.45;;
39994;SDS011;25686;51.908;10.418;2022-07-30T08:54:07;1.50;;;1.38;;
39994;SDS011;25686;51.908;10.418;2022-07-30T08:56:08;3.13;;;1.70;;
39994;SDS011;25686;51.908;10.418;2022-07-30T08:58:14;2.20;;;2.00;;
39994;SDS011;25686;51.908;10.418;2022-07-30T09:00:20;3.00;;;1.90;;
39994;SDS011;25686;51.908;10.418;2022-07-30T09:02:20;1.98;;;1.77;;
39994;SDS011;25686;51.908;10.418;2022-07-30T09:04:21;2.58;;;1.80;;
39994;SDS011;25686;51.908;10.418;2022-07-30T09:06:22;2.13;;;1.92;;
39994;SDS011;25686;51.908;10.418;2022-07-30T09:08:23;2.63;;;1.90;;
39994;SDS011;25686;51.908;10.418;2022-07-30T09:10:24;2.10;;;1.90;;
39994;SDS011;25686;51.908;10.418;2022-07-30T09:14:33;2.47;;;1.95;;
39994;SDS011;25686;51.908;10.418;2022-07-30T09:16:34;2.13;;;1.90;;
39994;SDS011;25686;51.908;10.418;2022-07-30T09:18:36;3.00;;;1.90;;
39994;SDS011;25686;51.908;10.418;2022-07-30T09:20:37;2.10;;;1.90;;
39994;SDS011;25686;51.908;10.418;2022-07-30T09:22:41;2.08;;;1.77;;
39994;SDS011;25686;51.908;10.418;2022-07-30T09:24:42;5.05;;;1.80;;
39994;SDS011;25686;51.908;10.418;2022-07-30T09:26:57;2.38;;;1.73;;
39994;SDS011;25686;51.908;10.418;2022-07-30T09:29:14;2.85;;;1.60;;
39994;SDS011;25686;51.908;10.418;2022-07-30T09:31:16;2.85;;;1.90;;
39994;SDS011;25686;51.908;10.418;2022-07-30T09:33:30;2.58;;;1.95;;
39994;SDS011;25686;51.908;10.418;2022-07-30T09:35:31;3.45;;;1.90;;
39994;SDS011;25686;51.908;10.418;2022-07-30T09:37:32;1.95;;;1.73;;
39994;SDS011;25686;51.908;10.418;2022-07-30T09:39:37;2.90;;;1.50;;
39994;SDS011;25686;51.908;10.418;2022-07-30T09:41:38;3.33;;;1.60;;
39994;SDS011;25686;51.908;10.418;2022-07-30T09:43:44;2.40;;;1.60;;
39994;SDS011;25686;51.908;10.418;2022-07-30T09:45:54;2.40;;;1.77;;
39994;SDS011;25686;51.908;10.418;2022-07-30T09:48:01;3.92;;;1.60;;
39994;SDS011;25686;51.908;10.418;2022-07-30T09:50:06;1.88;;;1.60;;
39994;SDS011;25686;51.908;10.418;2022-07-30T09:52:08;1.98;;;1.65;;
39994;SDS011;25686;51.908;10.418;2022-07-30T09:54:09;1.83;;;1.70;;
39994;SDS011;25686;51.908;10.418;2022-07-30T09:56:22;1.95;;;1.50;;
39994;SDS011;25686;51.908;10.418;2022-07-30T09:58:23;2.63;;;1.83;;
39994;SDS011;25686;51.908;10.418;2022-07-30T10:00:37;2.00;;;1.75;;
39994;SDS011;25686;51.908;10.418;2022-07-30T10:02:38;4.53;;;1.67;;
39994;SDS011;25686;51.908;10.418;2022-07-30T10:04:39;3.38;;;1.80;;
39994;SDS011;25686;51.908;10.418;2022-07-30T10:06:40;4.60;;;1.58;;
39994;SDS011;25686;51.908;10.418;2022-07-30T10:08:45;2.55;;;1.90;;
39994;SDS011;25686;51.908;10.418;2022-07-30T10:10:46;2.63;;;2.20;;
39994;SDS011;25686;51.908;10.418;2022-07-30T10:12:58;3.58;;;1.95;;
39994;SDS011;25686;51.908;10.418;2022-07-30T10:15:00;2.28;;;2.08;;
39994;SDS011;25686;51.908;10.418;2022-07-30T10:17:02;2.17;;;1.92;;
39994;SDS011;25686;51.908;10.418;2022-07-30T10:19:04;2.85;;;1.90;;
39994;SDS011;25686;51.908;10.418;2022-07-30T10:21:05;4.05;;;2.00;;
39994;SDS011;25686;51.908;10.418;2022-07-30T10:23:06;2.67;;;1.67;;
39994;SDS011;25686;51.908;10.418;2022-07-30T10:25:07;3.10;;;1.63;;
39994;SDS011;25686;51.908;10.418;2022-07-30T10:27:08;1.83;;;1.73;;
39994;SDS011;25686;51.908;10.418;2022-07-30T10:29:10;1.95;;;1.70;;
39994;SDS011;25686;51.908;10.418;2022-07-30T10:31:11;7.28;;;1.90;;
39994;SDS011;25686;51.908;10.418;2022-07-30T10:33:13;2.35;;;1.90;;
39994;SDS011;25686;51.908;10.418;2022-07-30T10:35:14;3.70;;;1.80;;
39994;SDS011;25686;51.908;10.418;2022-07-30T10:37:15;3.00;;;2.10;;
39994;SDS011;25686;51.908;10.418;2022-07-30T10:39:19;2.05;;;1.83;;
39994;SDS011;25686;51.908;10.418;2022-07-30T10:43:58;3.00;;;2.05;;
39994;SDS011;25686;51.908;10.418;2022-07-30T10:46:19;2.95;;;2.10;;
39994;SDS011;25686;51.908;10.418;2022-07-30T10:48:22;3.70;;;2.17;;
39994;SDS011;25686;51.908;10.418;2022-07-30T10:50:24;4.72;;;2.35;;
39994;SDS011;25686;51.908;10.418;2022-07-30T10:52:43;2.13;;;1.90;;
39994;SDS011;25686;51.908;10.418;2022-07-30T10:54:45;2.10;;;1.90;;
39994;SDS011;25686;51.908;10.418;2022-07-30T10:56:58;3.83;;;2.17;;
39994;SDS011;25686;51.908;10.418;2022-07-30T10:59:06;2.20;;;2.00;;
39994;SDS011;25686;51.908;10.418;2022-07-30T11:01:08;2.78;;;1.95;;
39994;SDS011;25686;51.908;10.418;2022-07-30T11:11:40;2.20;;;1.83;;
39994;SDS011;25686;51.908;10.418;2022-07-30T11:17:57;4.20;;;2.22;;
39994;SDS011;25686;51.908;10.418;2022-07-30T11:24:46;3.40;;;2.47;;
39994;SDS011;25686;51.908;10.418;2022-07-30T11:26:48;2.35;;;2.15;;
39994;SDS011;25686;51.908;10.418;2022-07-30T11:28:49;3.15;;;2.17;;
39994;SDS011;25686;51.908;10.418;2022-07-30T11:30:50;3.40;;;2.13;;
39994;SDS011;25686;51.908;10.418;2022-07-30T11:32:56;2.67;;;2.08;;
39994;SDS011;25686;51.908;10.418;2022-07-30T11:37:14;3.10;;;2.53;;
39994;SDS011;25686;51.908;10.418;2022-07-30T11:39:16;3.05;;;2.03;;
39994;SDS011;25686;51.908;10.418;2022-07-30T11:41:17;2.83;;;1.88;;
39994;SDS011;25686;51.908;10.418;2022-07-30T11:45:20;2.55;;;2.20;;
39994;SDS011;25686;51.908;10.418;2022-07-30T11:47:26;2.10;;;1.90;;
39994;SDS011;25686;51.908;10.418;2022-07-30T11:49:33;3.17;;;2.13;;
39994;SDS011;25686;51.908;10.418;2022-07-30T11:51:38;2.38;;;1.88;;
39994;SDS011;25686;51.908;10.418;2022-07-30T11:53:40;2.63;;;2.13;;
39994;SDS011;25686;51.908;10.418;2022-07-30T11:55:42;4.85;;;1.90;;
39994;SDS011;25686;51.908;10.418;2022-07-30T11:57:44;2.95;;;2.10;;
39994;SDS011;25686;51.908;10.418;2022-07-30T11:59:51;5.80;;;2.03;;
39994;SDS011;25686;51.908;10.418;2022-07-30T12:01:53;3.50;;;1.92;;
39994;SDS011;25686;51.908;10.418;2022-07-30T12:04:03;3.80;;;2.17;;
39994;SDS011;25686;51.908;10.418;2022-07-30T12:06:05;2.30;;;2.10;;
39994;SDS011;25686;51.908;10.418;2022-07-30T12:08:08;3.45;;;2.20;;
39994;SDS011;25686;51.908;10.418;2022-07-30T12:10:16;1.90;;;1.70;;
39994;SDS011;25686;51.908;10.418;2022-07-30T12:12:21;1.73;;;1.63;;
39994;SDS011;25686;51.908;10.418;2022-07-30T12:14:35;2.50;;;1.80;;
39994;SDS011;25686;51.908;10.418;2022-07-30T12:16:36;1.60;;;1.50;;
39994;SDS011;25686;51.908;10.418;2022-07-30T12:18:37;2.28;;;2.03;;
39994;SDS011;25686;51.908;10.418;2022-07-30T12:23:16;4.40;;;1.80;;
39994;SDS011;25686;51.908;10.418;2022-07-30T12:25:17;2.67;;;1.63;;
39994;SDS011;25686;51.908;10.418;2022-07-30T12:27:19;2.47;;;2.05;;
39994;SDS011;25686;51.908;10.418;2022-07-30T12:29:20;4.78;;;2.20;;
39994;SDS011;25686;51.908;10.418;2022-07-30T12:31:21;2.28;;;2.08;;
39994;SDS011;25686;51.908;10.418;2022-07-30T12:33:23;2.60;;;2.00;;
39994;SDS011;25686;51.908;10.418;2022-07-30T12:35:40;2.30;;;2.10;;